Time,TemperatureF,DewpointF,PressureIn,WindDirection,WindDirectionDegrees,WindSpeedMPH,WindSpeedGustMPH,Humidity,HourlyPrecipIn,Conditions,Clouds,dailyrainin,SoftwareType,DateUTC
2013-02-26 00:09:00,42.2,29.0,29.84,WNW,289,1.0,9.0,59,0.00,,,0.00,weatherlink.com 1.10,2013-02-26 06:09:00,
2013-02-26 00:24:00,41.8,29.0,29.84,NNW,341,2.0,8.0,60,0.00,,,0.00,weatherlink.com 1.10,2013-02-26 06:24:00,
2013-02-26 00:39:00,41.7,29.0,29.84,NW,314,5.0,9.0,60,0.00,,,0.00,weatherlink.com 1.10,2013-02-26 06:39:00,
2013-02-26 00:54:00,41.7,29.0,29.83,NW,312,4.0,9.0,60,0.00,,,0.00,weatherlink.com 1.10,2013-02-26 06:54:00,
2013-02-26 01:09:00,41.3,28.0,29.84,NW,323,3.0,7.0,60,0.00,,,0.00,weatherlink.com 1.10,2013-02-26 07:09:00,
2013-02-26 01:24:00,41.0,28.0,29.84,WNW,283,1.0,11.0,60,0.00,,,0.00,weatherlink.com 1.10,2013-02-26 07:24:00,
2013-02-26 01:39:00,40.7,28.0,29.84,NW,320,5.0,12.0,61,0.00,,,0.00,weatherlink.com 1.10,2013-02-26 07:39:00,
2013-02-26 01:54:00,40.6,28.0,29.84,NW,317,5.0,7.0,61,0.00,,,0.00,weatherlink.com 1.10,2013-02-26 07:54:00,
2013-02-26 02:09:00,40.5,28.0,29.83,NNW,328,1.0,7.0,61,0.00,,,0.00,weatherlink.com 1.10,2013-02-26 08:09:00,
2013-02-26 02:24:00,40.2,28.0,29.83,NW,323,0.0,6.0,61,0.00,,,0.00,weatherlink.com 1.10,2013-02-26 08:24:00,
2013-02-26 02:39:00,39.7,27.0,29.83,NW,322,0.0,5.0,62,0.00,,,0.00,weatherlink.com 1.10,2013-02-26 08:39:00,
2013-02-26 02:54:00,39.7,27.0,29.84,WNW,296,1.0,5.0,62,0.00,,,0.00,weatherlink.com 1.10,2013-02-26 08:54:00,
2013-02-26 03:09:00,39.5,27.0,29.84,NW,304,0.0,7.0,62,0.00,,,0.00,weatherlink.com 1.10,2013-02-26 09:09:00,
2013-02-26 03:24:00,39.0,27.0,29.84,WNW,303,1.0,4.0,63,0.00,,,0.00,weatherlink.com 1.10,2013-02-26 09:24:00,
2013-02-26 03:39:00,38.8,27.0,29.84,WNW,296,1.0,6.0,63,0.00,,,0.00,weatherlink.com 1.10,2013-02-26 09:39:00,
2013-02-26 03:54:00,38.7,27.0,29.85,WNW,286,1.0,6.0,64,0.00,,,0.00,weatherlink.com 1.10,2013-02-26 09:54:00,
2013-02-26 04:09:00,38.1,27.0,29.85,NW,311,0.0,4.0,64,0.00,,,0.00,weatherlink.com 1.10,2013-02-26 10:09:00,
2013-02-26 04:24:00,37.5,27.0,29.85,NW,311,0.0,3.0,65,0.00,,,0.00,weatherlink.com 1.10,2013-02-26 10:24:00,
2013-02-26 04:40:00,36.9,26.0,29.85,NW,311,1.0,3.0,66,0.00,,,0.00,weatherlink.com 1.10,2013-02-26 10:40:00,
2013-02-26 04:55:00,36.4,26.0,29.86,NW,311,2.0,4.0,67,0.00,,,0.00,weatherlink.com 1.10,2013-02-26 10:55:00,
2013-02-26 05:10:00,36.1,26.0,29.86,NW,311,0.0,4.0,67,0.00,,,0.00,weatherlink.com 1.10,2013-02-26 11:10:00,
2013-02-26 05:25:00,35.7,26.0,29.86,NW,311,0.0,3.0,68,0.00,,,0.00,weatherlink.com 1.10,2013-02-26 11:25:00,
2013-02-26 05:40:00,35.5,26.0,29.86,NW,311,0.0,4.0,69,0.00,,,0.00,weatherlink.com 1.10,2013-02-26 11:40:00,
2013-02-26 05:55:00,35.6,26.0,29.86,NW,311,0.0,5.0,68,0.00,,,0.00,weatherlink.com 1.10,2013-02-26 11:55:00,
2013-02-26 06:10:00,35.4,26.0,29.87,NW,311,0.0,1.0,68,0.00,,,0.00,weatherlink.com 1.10,2013-02-26 12:10:00,
2013-02-26 06:25:00,34.9,26.0,29.88,NW,311,0.0,2.0,69,0.00,,,0.00,weatherlink.com 1.10,2013-02-26 12:25:00,
2013-02-26 06:40:00,34.3,25.0,29.89,NW,311,0.0,2.0,70,0.00,,,0.00,weatherlink.com 1.10,2013-02-26 12:40:00,
2013-02-26 06:55:00,33.3,25.0,29.89,NW,311,0.0,1.0,71,0.00,,,0.00,weatherlink.com 1.10,2013-02-26 12:55:00,
2013-02-26 07:10:00,33.3,25.0,29.90,NW,311,2.0,3.0,72,0.00,,,0.00,weatherlink.com 1.10,2013-02-26 13:10:00,
2013-02-26 07:25:00,34.2,26.0,29.90,NW,311,0.0,5.0,72,0.00,,,0.00,weatherlink.com 1.10,2013-02-26 13:25:00,
2013-02-26 07:40:00,35.5,26.0,29.91,WNW,302,4.0,5.0,69,0.00,,,0.00,weatherlink.com 1.10,2013-02-26 13:40:00,
2013-02-26 07:55:00,37.0,27.0,29.92,WNW,285,2.0,7.0,67,0.00,,,0.00,weatherlink.com 1.10,2013-02-26 13:55:00,
2013-02-26 08:10:00,38.8,27.0,29.93,West,278,2.0,9.0,64,0.00,,,0.00,weatherlink.com 1.10,2013-02-26 14:10:00,
2013-02-26 08:25:00,40.3,27.0,29.93,WNW,289,3.0,9.0,60,0.00,,,0.00,weatherlink.com 1.10,2013-02-26 14:25:00,
2013-02-26 08:40:00,41.3,28.0,29.93,NW,305,3.0,9.0,59,0.00,,,0.00,weatherlink.com 1.10,2013-02-26 14:40:00,
2013-02-26 08:56:00,42.5,28.0,29.93,WNW,296,0.0,9.0,58,0.00,,,0.00,weatherlink.com 1.10,2013-02-26 14:56:00,
2013-02-26 09:11:00,43.5,28.0,29.95,WNW,282,0.0,9.0,55,0.00,,,0.00,weatherlink.com 1.10,2013-02-26 15:11:00,
2013-02-26 09:26:00,44.6,29.0,29.95,NW,311,3.0,9.0,54,0.00,,,0.00,weatherlink.com 1.10,2013-02-26 15:26:00,
2013-02-26 09:41:00,45.6,29.0,29.95,WNW,289,2.0,6.0,52,0.00,,,0.00,weatherlink.com 1.10,2013-02-26 15:41:00,
2013-02-26 09:56:00,47.0,29.0,29.94,West,278,4.0,7.0,50,0.00,,,0.00,weatherlink.com 1.10,2013-02-26 15:56:00,
2013-02-26 10:11:00,48.1,30.0,29.94,North,360,5.0,10.0,49,0.00,,,0.00,weatherlink.com 1.10,2013-02-26 16:11:00,
2013-02-26 10:26:00,49.6,30.0,29.93,North,5,2.0,9.0,47,0.00,,,0.00,weatherlink.com 1.10,2013-02-26 16:26:00,
2013-02-26 10:41:00,50.4,30.0,29.93,North,360,2.0,9.0,45,0.00,,,0.00,weatherlink.com 1.10,2013-02-26 16:41:00,
2013-02-26 10:56:00,52.6,30.0,29.93,North,355,3.0,8.0,43,0.00,,,0.00,weatherlink.com 1.10,2013-02-26 16:56:00,
2013-02-26 11:11:00,52.7,29.0,29.93,NNE,20,0.0,9.0,40,0.00,,,0.00,weatherlink.com 1.10,2013-02-26 17:11:00,
2013-02-26 11:26:00,54.0,30.0,29.93,NNW,330,1.0,8.0,40,0.00,,,0.00,weatherlink.com 1.10,2013-02-26 17:26:00,
2013-02-26 11:41:00,54.6,29.0,29.92,WNW,282,3.0,8.0,38,0.00,,,0.00,weatherlink.com 1.10,2013-02-26 17:41:00,
2013-02-26 11:56:00,55.3,29.0,29.91,WSW,253,2.0,7.0,37,0.00,,,0.00,weatherlink.com 1.10,2013-02-26 17:56:00,
2013-02-26 12:11:00,56.5,30.0,29.89,NE,37,0.0,7.0,36,0.00,,,0.00,weatherlink.com 1.10,2013-02-26 18:11:00,
2013-02-26 12:26:00,57.5,29.0,29.89,NW,308,1.0,10.0,34,0.00,,,0.00,weatherlink.com 1.10,2013-02-26 18:26:00,
2013-02-26 12:41:00,57.8,29.0,29.89,North,5,2.0,8.0,33,0.00,,,0.00,weatherlink.com 1.10,2013-02-26 18:41:00,
2013-02-26 12:56:00,59.6,29.0,29.88,NNE,25,1.0,5.0,31,0.00,,,0.00,weatherlink.com 1.10,2013-02-26 18:56:00,
2013-02-26 13:11:00,60.5,28.0,29.86,WNW,284,2.0,7.0,29,0.00,,,0.00,weatherlink.com 1.10,2013-02-26 19:11:00,
2013-02-26 13:26:00,60.8,28.0,29.86,North,355,3.0,8.0,29,0.00,,,0.00,weatherlink.com 1.10,2013-02-26 19:26:00,
2013-02-26 13:42:00,62.0,28.0,29.85,North,355,4.0,8.0,28,0.00,,,0.00,weatherlink.com 1.10,2013-02-26 19:42:00,
2013-02-26 13:57:00,62.1,27.0,29.84,West,273,3.0,7.0,26,0.00,,,0.00,weatherlink.com 1.10,2013-02-26 19:57:00,
2013-02-26 14:12:00,63.3,28.0,29.84,WNW,302,5.0,12.0,26,0.00,,,0.00,weatherlink.com 1.10,2013-02-26 20:12:00,
2013-02-26 14:27:00,64.1,27.0,29.83,SW,236,2.0,6.0,25,0.00,,,0.00,weatherlink.com 1.10,2013-02-26 20:27:00,
2013-02-26 14:42:00,64.3,28.0,29.82,NNE,13,5.0,7.0,25,0.00,,,0.00,weatherlink.com 1.10,2013-02-26 20:42:00,
2013-02-26 14:57:00,64.8,26.0,29.81,SSW,192,0.0,7.0,23,0.00,,,0.00,weatherlink.com 1.10,2013-02-26 20:57:00,
2013-02-26 15:12:00,66.0,28.0,29.81,North,350,4.0,8.0,24,0.00,,,0.00,weatherlink.com 1.10,2013-02-26 21:12:00,
2013-02-26 15:27:00,66.6,28.0,29.80,SW,226,6.0,8.0,23,0.00,,,0.00,weatherlink.com 1.10,2013-02-26 21:27:00,
2013-02-26 15:42:00,66.4,25.0,29.79,SW,217,2.0,5.0,21,0.00,,,0.00,weatherlink.com 1.10,2013-02-26 21:42:00,
2013-02-26 15:57:00,67.0,27.0,29.80,NNW,333,4.0,6.0,22,0.00,,,0.00,weatherlink.com 1.10,2013-02-26 21:57:00,
2013-02-26 16:12:00,66.1,25.0,29.79,NE,37,6.0,8.0,21,0.00,,,0.00,weatherlink.com 1.10,2013-02-26 22:12:00,
2013-02-26 16:27:00,65.9,25.0,29.79,North,9,0.0,6.0,21,0.00,,,0.00,weatherlink.com 1.10,2013-02-26 22:27:00,
2013-02-26 16:42:00,65.7,26.0,29.79,North,9,0.0,4.0,22,0.00,,,0.00,weatherlink.com 1.10,2013-02-26 22:42:00,
2013-02-26 16:57:00,65.4,24.0,29.79,North,9,0.0,4.0,21,0.00,,,0.00,weatherlink.com 1.10,2013-02-26 22:57:00,
2013-02-26 17:12:00,65.2,25.0,29.78,North,9,0.0,0.0,22,0.00,,,0.00,weatherlink.com 1.10,2013-02-26 23:12:00,
2013-02-26 17:27:00,65.0,25.0,29.78,North,9,0.0,2.0,22,0.00,,,0.00,weatherlink.com 1.10,2013-02-26 23:27:00,
2013-02-26 17:42:00,64.2,25.0,29.78,North,9,0.0,2.0,23,0.00,,,0.00,weatherlink.com 1.10,2013-02-26 23:42:00,
2013-02-26 17:57:00,63.4,27.0,29.78,North,9,0.0,0.0,25,0.00,,,0.00,weatherlink.com 1.10,2013-02-26 23:57:00,
2013-02-26 18:12:00,62.2,28.0,29.78,North,9,0.0,0.0,27,0.00,,,0.00,weatherlink.com 1.10,2013-02-27 00:12:00,
2013-02-26 18:27:00,60.9,27.0,29.78,North,9,0.0,1.0,28,0.00,,,0.00,weatherlink.com 1.10,2013-02-27 00:27:00,
2013-02-26 18:42:00,59.6,27.0,29.78,North,9,0.0,1.0,29,0.00,,,0.00,weatherlink.com 1.10,2013-02-27 00:42:00,
2013-02-26 18:57:00,58.6,26.0,29.77,North,9,0.0,0.0,29,0.00,,,0.00,weatherlink.com 1.10,2013-02-27 00:57:00,
2013-02-26 19:12:00,57.5,27.0,29.78,North,9,1.0,1.0,31,0.00,,,0.00,weatherlink.com 1.10,2013-02-27 01:12:00,
2013-02-26 19:27:00,57.0,27.0,29.79,South,172,2.0,5.0,32,0.00,,,0.00,weatherlink.com 1.10,2013-02-27 01:27:00,
2013-02-26 19:42:00,56.8,27.0,29.79,South,171,3.0,5.0,32,0.00,,,0.00,weatherlink.com 1.10,2013-02-27 01:42:00,
2013-02-26 19:57:00,56.6,28.0,29.80,SSE,167,0.0,4.0,33,0.00,,,0.00,weatherlink.com 1.10,2013-02-27 01:57:00,
2013-02-26 20:13:00,55.6,27.0,29.80,SSE,167,0.0,1.0,34,0.00,,,0.00,weatherlink.com 1.10,2013-02-27 02:13:00,
2013-02-26 20:27:00,54.0,28.0,29.80,SSE,167,0.0,1.0,37,0.00,,,0.00,weatherlink.com 1.10,2013-02-27 02:27:00,
2013-02-26 20:42:00,53.3,27.0,29.80,SSE,167,0.0,1.0,37,0.00,,,0.00,weatherlink.com 1.10,2013-02-27 02:42:00,
2013-02-26 20:57:00,52.8,27.0,29.81,SSE,167,0.0,0.0,37,0.00,,,0.00,weatherlink.com 1.10,2013-02-27 02:57:00,
2013-02-26 21:12:00,52.2,26.0,29.81,SSE,167,0.0,0.0,37,0.00,,,0.00,weatherlink.com 1.10,2013-02-27 03:12:00,
2013-02-26 21:27:00,52.1,25.0,29.81,SSE,167,0.0,1.0,35,0.00,,,0.00,weatherlink.com 1.10,2013-02-27 03:27:00,
2013-02-26 21:42:00,52.1,24.0,29.80,SSE,168,0.0,5.0,34,0.00,,,0.00,weatherlink.com 1.10,2013-02-27 03:42:00,
2013-02-26 21:57:00,53.4,23.0,29.79,SSW,202,5.0,7.0,31,0.00,,,0.00,weatherlink.com 1.10,2013-02-27 03:57:00,
2013-02-26 22:12:00,54.3,23.0,29.80,SSW,211,5.0,9.0,30,0.00,,,0.00,weatherlink.com 1.10,2013-02-27 04:12:00,
2013-02-26 22:28:00,53.9,23.0,29.80,SSW,213,4.0,7.0,30,0.00,,,0.00,weatherlink.com 1.10,2013-02-27 04:28:00,
2013-02-26 22:43:00,53.8,22.0,29.80,SSW,194,5.0,7.0,29,0.00,,,0.00,weatherlink.com 1.10,2013-02-27 04:43:00,
2013-02-26 22:58:00,53.2,22.0,29.80,SSW,196,3.0,7.0,30,0.00,,,0.00,weatherlink.com 1.10,2013-02-27 04:58:00,
2013-02-26 23:13:00,53.2,22.0,29.81,SSW,199,3.0,3.0,30,0.00,,,0.00,weatherlink.com 1.10,2013-02-27 05:13:00,
2013-02-26 23:28:00,52.7,22.0,29.80,SSW,199,2.0,5.0,30,0.00,,,0.00,weatherlink.com 1.10,2013-02-27 05:28:00,
2013-02-26 23:43:00,53.1,22.0,29.80,SSW,198,0.0,5.0,30,0.00,,,0.00,weatherlink.com 1.10,2013-02-27 05:43:00,
2013-02-26 23:58:00,52.4,23.0,29.80,SSW,198,1.0,1.0,32,0.00,,,0.00,weatherlink.com 1.10,2013-02-27 05:58:00,